createdAt,value
2023-01-19T14:20:39.127Z,3.90
2023-01-19T14:23:42.723Z,5.00
2023-01-19T14:26:41.206Z,3.60
2023-01-19T14:29:12.748Z,4.60
2023-01-19T14:31:49.498Z,4.50
2023-01-19T15:39:16.928Z,4.50
2023-01-19T15:41:46.660Z,4.40
2023-01-19T15:44:16.775Z,4.30
2023-01-19T15:46:46.701Z,4.70
2023-01-19T15:49:19.789Z,4.00
2023-01-19T15:51:49.577Z,4.10
2023-01-19T15:54:19.180Z,4.30
2023-01-19T15:56:53.024Z,4.10
2023-01-19T15:59:24.318Z,3.30
2023-01-19T16:01:54.022Z,4.00
2023-01-19T16:04:23.484Z,4.10
2023-01-19T16:06:52.752Z,4.00
2023-01-19T16:09:23.270Z,5.80
2023-01-19T16:11:57.495Z,4.00
2023-01-19T16:14:26.290Z,4.90
2023-01-19T16:16:55.215Z,4.40
2023-01-19T16:19:27.100Z,4.30
2023-01-19T16:21:56.765Z,4.40
2023-01-19T16:24:27.301Z,3.70
2023-01-19T16:26:56.777Z,4.60
2023-01-19T16:29:25.612Z,4.90
2023-01-19T16:31:56.997Z,4.40
2023-01-19T16:34:27.963Z,3.90
2023-01-19T16:37:03.775Z,5.10
2023-01-19T16:39:33.412Z,3.50
2023-01-19T16:42:02.502Z,4.00
2023-01-19T16:44:35.441Z,4.20
2023-01-19T16:47:07.458Z,4.60
2023-01-19T16:49:39.105Z,3.90
2023-01-19T16:52:08.122Z,2.90
2023-01-19T16:54:40.984Z,4.40
2023-01-19T16:57:18.586Z,4.00
2023-01-19T16:59:51.754Z,3.90
2023-01-19T17:02:20.867Z,4.80
2023-01-19T17:04:49.757Z,4.50
2023-01-19T17:07:25.113Z,3.80
2023-01-19T17:09:55.418Z,4.50
2023-01-19T17:12:32.238Z,4.50
2023-01-19T17:15:01.908Z,5.90
2023-01-19T17:17:32.594Z,5.10
2023-01-19T17:20:13.271Z,4.10
2023-01-19T17:22:45.807Z,4.70
2023-01-19T17:25:14.813Z,4.80
2023-01-19T17:27:45.274Z,4.60
2023-01-19T17:30:20.911Z,4.20
2023-01-19T17:32:51.946Z,4.00
2023-01-19T17:35:21.471Z,4.60
2023-01-19T17:37:54.775Z,4.50
2023-01-19T17:40:27.088Z,5.20
2023-01-19T17:42:55.550Z,6.10
2023-01-19T17:45:26.791Z,4.20
2023-01-19T17:47:55.994Z,4.60
2023-01-19T17:50:24.582Z,4.40
2023-01-19T17:52:58.826Z,3.70
2023-01-19T17:55:35.926Z,4.80
2023-01-19T17:58:07.621Z,6.10
2023-01-19T18:00:36.741Z,6.70
2023-01-19T18:03:11.447Z,7.60
2023-01-19T18:05:56.932Z,6.90
2023-01-19T18:08:30.102Z,6.20
2023-01-19T18:11:03.050Z,4.70
2023-01-19T18:13:36.960Z,4.80
2023-01-19T18:16:08.832Z,4.60
2023-01-19T18:18:40.021Z,5.40
2023-01-19T18:21:11.761Z,4.50
2023-01-19T18:23:43.614Z,4.80
2023-01-19T18:26:19.638Z,3.40
2023-01-19T18:28:55.169Z,3.80
2023-01-19T18:31:25.703Z,4.10
2023-01-19T18:33:55.173Z,4.80
2023-01-19T18:36:24.970Z,4.30
2023-01-19T18:38:53.975Z,3.50
2023-01-19T18:41:22.578Z,3.60
2023-01-19T18:44:01.147Z,3.90
2023-01-19T18:46:31.574Z,4.50
2023-01-19T18:49:05.123Z,3.80
2023-01-19T18:51:34.189Z,3.00
2023-01-19T18:54:03.254Z,4.20
2023-01-19T18:56:33.640Z,3.50
2023-01-19T18:59:05.508Z,4.00
2023-01-19T19:01:37.527Z,3.30
2023-01-19T19:04:14.462Z,3.80
2023-01-19T19:06:49.896Z,4.20
2023-01-19T19:09:21.112Z,3.80
2023-01-19T19:11:49.914Z,3.80
2023-01-19T19:14:22.908Z,2.90
2023-01-19T19:16:54.460Z,2.90
2023-01-19T19:19:28.919Z,3.00
2023-01-19T19:22:00.898Z,4.80
2023-01-19T19:24:31.549Z,3.40
2023-01-19T19:27:00.135Z,4.20
2023-01-19T19:29:29.489Z,4.80
2023-01-19T19:31:58.343Z,3.60
2023-01-19T19:34:32.672Z,3.80
2023-01-19T19:37:02.263Z,3.50
2023-01-19T19:39:31.764Z,4.00
2023-01-19T19:42:02.824Z,3.50
2023-01-19T19:44:32.034Z,3.10
2023-01-19T19:47:01.812Z,5.20
2023-01-19T19:49:32.330Z,4.20
2023-01-19T19:52:02.056Z,4.30
2023-01-19T19:54:32.080Z,4.80
2023-01-19T19:57:03.083Z,4.40
2023-01-19T19:59:33.783Z,4.40
2023-01-19T20:02:06.458Z,4.20
2023-01-19T20:04:38.609Z,3.30
2023-01-19T20:07:11.001Z,4.40
2023-01-19T20:09:40.568Z,5.10
2023-01-19T20:12:12.289Z,3.10
2023-01-19T20:14:43.719Z,4.80
2023-01-19T20:17:14.429Z,4.00
2023-01-19T20:19:49.605Z,4.00
2023-01-19T20:22:20.767Z,3.90
2023-01-19T20:24:52.443Z,4.00
2023-01-19T20:27:22.770Z,4.20
2023-01-19T20:29:59.663Z,3.90
2023-01-19T20:32:30.404Z,3.90
2023-01-19T20:34:59.495Z,4.20
2023-01-19T20:37:29.476Z,3.70
2023-01-19T20:39:59.097Z,3.50
2023-01-19T20:42:29.508Z,3.80
2023-01-19T20:45:04.437Z,3.90
2023-01-19T20:47:40.001Z,2.50
2023-01-19T20:50:10.951Z,2.80
2023-01-19T20:52:40.273Z,2.10
2023-01-19T20:55:13.970Z,2.30
2023-01-19T20:57:43.539Z,2.30
2023-01-19T21:00:17.731Z,2.10
2023-01-19T21:02:49.104Z,1.60
2023-01-19T21:08:58.338Z,1.60
2023-01-19T21:11:28.568Z,1.50
2023-01-19T21:13:57.158Z,1.60
2023-01-19T21:16:29.302Z,1.80
2023-01-19T21:18:59.893Z,1.40
2023-01-19T21:21:31.976Z,1.90
2023-01-19T21:24:04.845Z,1.60
2023-01-19T21:26:37.011Z,1.70
2023-01-19T21:29:12.127Z,1.60
2023-01-19T21:31:41.599Z,1.50
2023-01-19T21:34:12.037Z,1.70
2023-01-19T21:36:40.830Z,1.50
2023-01-19T21:39:10.251Z,1.70
2023-01-19T21:41:40.563Z,1.60
2023-01-19T21:44:13.641Z,1.30
2023-01-19T21:46:43.776Z,1.40
2023-01-19T21:49:19.183Z,1.70
2023-01-19T21:51:52.921Z,1.90
2023-01-19T21:54:21.699Z,1.50
2023-01-19T21:56:50.629Z,2.30
2023-01-19T21:59:20.521Z,2.00
2023-01-19T22:01:54.602Z,2.40
2023-01-19T22:07:53.655Z,2.50
2023-01-19T22:10:22.221Z,2.70
2023-01-19T22:12:50.923Z,2.30
2023-01-19T22:15:20.294Z,2.30
2023-01-19T22:17:48.995Z,1.90
2023-01-19T22:20:17.684Z,2.30
2023-01-19T22:22:46.196Z,3.00
2023-01-19T22:25:15.305Z,2.80
2023-01-19T22:27:44.195Z,2.40
2023-01-19T22:30:13.029Z,2.10
2023-01-19T22:32:41.511Z,2.10
2023-01-19T22:35:10.300Z,2.60
2023-01-19T22:37:38.808Z,2.40
2023-01-19T22:40:12.349Z,2.20
2023-01-19T22:42:45.778Z,2.10
2023-01-19T22:45:15.612Z,2.10
2023-01-19T22:47:46.451Z,2.20
2023-01-19T22:50:15.635Z,1.90
2023-01-19T22:52:44.213Z,3.00
2023-01-19T22:55:13.054Z,2.60
2023-01-19T22:57:41.787Z,2.40
2023-01-19T23:00:11.397Z,2.00
2023-01-19T23:02:39.706Z,2.40
2023-01-19T23:05:08.041Z,2.70
2023-01-19T23:07:36.626Z,2.30
2023-01-19T23:10:05.738Z,2.20
2023-01-19T23:12:33.995Z,1.90
2023-01-19T23:15:02.398Z,3.00
2023-01-19T23:17:30.976Z,2.60
2023-01-19T23:19:59.644Z,2.40
2023-01-19T23:22:28.433Z,1.90
2023-01-19T23:24:56.725Z,2.80
2023-01-19T23:27:25.193Z,3.60
2023-01-19T23:29:53.685Z,2.60
2023-01-19T23:32:23.591Z,2.70
2023-01-19T23:34:51.860Z,2.70
2023-01-19T23:37:20.855Z,2.50
2023-01-19T23:39:49.296Z,2.50
2023-01-19T23:42:18.231Z,2.50
2023-01-19T23:44:47.647Z,2.30
2023-01-19T23:47:16.122Z,2.60
2023-01-19T23:49:46.127Z,2.70
2023-01-19T23:52:15.171Z,2.20
2023-01-19T23:54:44.949Z,2.60
2023-01-19T23:57:14.026Z,2.50
2023-01-19T23:59:42.610Z,2.70
